Time;durP1;ratioP1;P1;durP2;ratioP2;P2;SDS_P1;SDS_P2;PMS_P1;PMS_P2;Temp;Humidity;BMP_temperature;BMP_pressure;BME280_temperature;BME280_humidity;BME280_pressure;Samples;Min_cycle;Max_cycle;Signal;HPM_P1;HPM_P2
2021/08/19 00:01:03;;;;;;;225.87;52.97;;;17.30;99.90;;;;;;5095222;28;20214;-71
2021/08/19 00:03:31;;;;;;;281.43;57.63;;;17.40;99.90;;;;;;5095308;28;20501;-71
2021/08/19 00:05:59;;;;;;;278.53;55.57;;;17.40;99.90;;;;;;5093338;28;20470;-71
2021/08/19 00:08:27;;;;;;;281.10;49.93;;;17.30;99.90;;;;;;5094545;28;20436;-71
2021/08/19 00:10:55;;;;;;;255.30;52.57;;;17.30;99.90;;;;;;5093255;28;20441;-71
2021/08/19 00:13:23;;;;;;;256.30;49.93;;;17.30;99.90;;;;;;5094347;28;21015;-71
2021/08/19 00:15:53;;;;;;;248.00;54.97;;;17.30;99.90;;;;;;5095103;28;20963;-71
2021/08/19 00:18:21;;;;;;;285.17;56.73;;;17.30;99.90;;;;;;5094666;28;20473;-71
2021/08/19 00:20:49;;;;;;;282.77;56.43;;;17.30;99.90;;;;;;5094436;28;20468;-71
2021/08/19 00:23:17;;;;;;;9.40;8.50;;;17.30;99.90;;;;;;5090026;28;20431;-71
2021/08/19 00:25:46;;;;;;;255.30;50.67;;;17.30;99.90;;;;;;5093213;28;20301;-71
2021/08/19 00:28:14;;;;;;;217.82;44.80;;;17.30;99.90;;;;;;5094623;28;20403;-71
2021/08/19 00:30:42;;;;;;;260.97;51.03;;;17.30;99.90;;;;;;5094288;28;20187;-71
2021/08/19 00:33:12;;;;;;;280.07;55.50;;;17.30;99.90;;;;;;5094409;28;20466;-71
2021/08/19 00:35:40;;;;;;;267.63;51.83;;;17.20;99.90;;;;;;5095200;28;20417;-71
2021/08/19 00:38:08;;;;;;;268.77;54.53;;;17.20;99.90;;;;;;5093118;28;20447;-71
2021/08/19 00:40:37;;;;;;;247.57;62.23;;;17.20;99.90;;;;;;5094052;28;20551;-71
2021/08/19 00:43:06;;;;;;;284.63;50.33;;;17.20;99.90;;;;;;5107948;28;20460;-71
2021/08/19 00:45:36;;;;;;;281.47;53.50;;;17.20;99.90;;;;;;5073778;28;20487;-71
2021/08/19 00:48:05;;;;;;;272.83;53.60;;;17.20;99.90;;;;;;5084095;28;20460;-71
2021/08/19 00:50:35;;;;;;;283.50;55.27;;;17.10;99.90;;;;;;5108855;28;20458;-71
2021/08/19 00:53:03;;;;;;;115.00;27.00;;;17.20;99.90;;;;;;5093246;28;20451;-71
2021/08/19 00:55:32;;;;;;;280.93;55.07;;;17.20;99.90;;;;;;5093735;28;20679;-71
2021/08/19 00:58:00;;;;;;;285.40;60.70;;;17.10;99.90;;;;;;5093500;28;20440;-71
2021/08/19 01:00:28;;;;;;;9.10;8.20;;;17.10;99.90;;;;;;5083473;28;20454;-71
2021/08/19 01:02:58;;;;;;;243.67;52.87;;;17.20;99.90;;;;;;5082629;28;20219;-71
2021/08/19 01:05:28;;;;;;;245.07;50.30;;;17.20;99.90;;;;;;5094563;28;20475;-71
2021/08/19 01:07:58;;;;;;;271.23;55.37;;;17.20;99.90;;;;;;5093610;28;20445;-71
2021/08/19 01:10:27;;;;;;;260.13;54.20;;;17.20;99.90;;;;;;5093991;28;20765;-71
2021/08/19 01:12:56;;;;;;;281.87;59.47;;;17.20;99.90;;;;;;5092283;28;20835;-71
2021/08/19 01:15:24;;;;;;;266.27;55.83;;;17.10;99.90;;;;;;5094204;28;20436;-71
2021/08/19 01:17:56;;;;;;;282.27;57.97;;;17.10;99.90;;;;;;5093480;28;20435;-71
2021/08/19 01:20:27;;;;;;;283.20;57.53;;;17.10;99.90;;;;;;5092015;28;20465;-71
2021/08/19 01:22:58;;;;;;;270.60;56.07;;;17.10;99.90;;;;;;5093338;28;20452;-71
2021/08/19 01:25:28;;;;;;;285.87;57.80;;;17.10;99.90;;;;;;5091029;28;20456;-71
2021/08/19 01:27:58;;;;;;;258.93;59.43;;;17.10;99.90;;;;;;5092531;28;20463;-71
2021/08/19 01:30:27;;;;;;;285.13;61.17;;;17.10;99.90;;;;;;5092062;28;20432;-71
2021/08/19 01:32:55;;;;;;;286.37;62.17;;;17.10;99.90;;;;;;5093282;28;20469;-71
2021/08/19 01:35:25;;;;;;;285.13;58.90;;;17.10;99.90;;;;;;5093477;28;20917;-71
2021/08/19 01:37:53;;;;;;;233.80;62.70;;;17.10;99.90;;;;;;5093450;28;20957;-71
2021/08/19 01:40:22;;;;;;;284.07;60.90;;;17.10;99.90;;;;;;5092134;28;20440;-71
2021/08/19 01:42:50;;;;;;;284.10;59.20;;;17.10;99.90;;;;;;5093024;28;20466;-71
2021/08/19 01:45:21;;;;;;;238.03;60.47;;;17.10;99.90;;;;;;5093065;28;20456;-71
2021/08/19 01:47:50;;;;;;;286.90;61.93;;;17.10;99.90;;;;;;5092396;28;20444;-71
2021/08/19 01:50:18;;;;;;;285.33;60.83;;;17.10;99.90;;;;;;5091925;28;20548;-71
2021/08/19 01:52:46;;;;;;;287.27;66.53;;;17.10;99.90;;;;;;5092900;28;20830;-71
2021/08/19 01:55:15;;;;;;;13.40;12.10;;;17.10;99.90;;;;;;5092499;28;20920;-71
2021/08/19 01:57:43;;;;;;;274.03;57.63;;;17.10;99.90;;;;;;5093346;28;20444;-71
2021/08/19 02:00:13;;;;;;;257.50;59.33;;;17.10;99.90;;;;;;5092927;28;20432;-71
2021/08/19 02:02:43;;;;;;;250.43;59.80;;;17.10;99.90;;;;;;5094449;28;20491;-71
2021/08/19 02:05:12;;;;;;;282.63;60.33;;;17.00;99.90;;;;;;5097088;28;20444;-71
2021/08/19 02:07:40;;;;;;;278.90;59.47;;;17.00;99.90;;;;;;5095703;28;20444;-71
2021/08/19 02:10:10;;;;;;;248.27;60.90;;;17.00;99.90;;;;;;5095404;28;21031;-71
2021/08/19 02:12:38;;;;;;;241.30;59.17;;;17.00;99.90;;;;;;5095492;28;20431;-71
2021/08/19 02:15:06;;;;;;;285.30;65.67;;;16.90;99.90;;;;;;5097193;28;20423;-71
2021/08/19 02:17:34;;;;;;;253.87;60.10;;;16.90;99.90;;;;;;5096790;28;20437;-71
2021/08/19 02:20:05;;;;;;;251.43;63.00;;;16.90;99.90;;;;;;5096753;28;20939;-71
2021/08/19 02:22:33;;;;;;;237.00;57.63;;;16.90;99.90;;;;;;5097210;28;20983;-71
2021/08/19 02:25:01;;;;;;;283.50;63.23;;;16.90;99.90;;;;;;5096940;28;20439;-71
2021/08/19 02:27:30;;;;;;;287.50;64.73;;;16.90;99.90;;;;;;5096878;28;20448;-71
2021/08/19 02:29:58;;;;;;;100.55;28.45;;;16.90;99.90;;;;;;5094816;28;20440;-71
2021/08/19 02:32:31;;;;;;;237.30;61.37;;;16.90;99.90;;;;;;5094398;28;20224;-71
2021/08/19 02:34:59;;;;;;;285.70;63.00;;;16.90;99.90;;;;;;5096710;28;20395;-71
2021/08/19 02:37:29;;;;;;;285.77;67.90;;;16.90;99.90;;;;;;5095167;28;20419;-71
2021/08/19 02:39:57;;;;;;;283.37;61.33;;;16.90;99.90;;;;;;5096619;28;20418;-71
2021/08/19 02:42:25;;;;;;;283.90;61.17;;;16.90;99.90;;;;;;5096136;28;20480;-71
2021/08/19 02:44:54;;;;;;;279.73;59.00;;;16.90;99.90;;;;;;5097061;28;20520;-71
2021/08/19 02:47:22;;;;;;;283.60;64.83;;;16.80;99.90;;;;;;5096180;28;20451;-71
2021/08/19 02:49:50;;;;;;;286.57;63.33;;;16.80;99.90;;;;;;5096818;28;20445;-71
2021/08/19 02:52:18;;;;;;;286.87;60.67;;;16.80;99.90;;;;;;5095974;28;20463;-71
2021/08/19 02:54:47;;;;;;;95.35;27.95;;;16.80;99.90;;;;;;5094428;28;20917;-71
2021/08/19 02:57:15;;;;;;;232.73;58.13;;;16.80;99.90;;;;;;5096449;28;20680;-71
2021/08/19 02:59:43;;;;;;;284.63;61.33;;;16.80;99.90;;;;;;5096598;28;20447;-71
2021/08/19 03:02:12;;;;;;;285.83;61.83;;;16.80;99.90;;;;;;5094156;28;20468;-71
2021/08/19 03:04:40;;;;;;;264.73;61.80;;;16.80;99.90;;;;;;5075761;28;20499;-71
2021/08/19 03:07:09;;;;;;;284.63;65.73;;;16.80;99.90;;;;;;5083285;28;20519;-71
2021/08/19 03:09:38;;;;;;;248.60;59.60;;;16.80;99.90;;;;;;5095938;28;20448;-71
2021/08/19 03:12:09;;;;;;;269.60;61.83;;;16.80;99.90;;;;;;5095544;28;20425;-71
2021/08/19 03:14:37;;;;;;;286.77;66.53;;;16.80;99.90;;;;;;5096423;28;20519;-71
2021/08/19 03:17:07;;;;;;;286.50;65.93;;;16.70;99.90;;;;;;5096486;28;20443;-71
2021/08/19 03:19:35;;;;;;;271.37;59.90;;;16.70;99.90;;;;;;5095613;28;20415;-71
2021/08/19 03:22:05;;;;;;;280.50;61.70;;;16.70;99.90;;;;;;5095549;28;20517;-71
2021/08/19 03:24:33;;;;;;;285.37;67.03;;;16.70;99.90;;;;;;5095278;28;20444;-71
2021/08/19 03:27:02;;;;;;;288.07;63.93;;;16.70;99.90;;;;;;5093001;28;20854;-71
2021/08/19 03:29:32;;;;;;;284.53;60.20;;;16.70;99.90;;;;;;5095088;28;20419;-71
2021/08/19 03:32:00;;;;;;;15.20;13.60;;;16.70;99.90;;;;;;5094158;28;20993;-71
2021/08/19 03:34:28;;;;;;;207.07;55.93;;;16.80;99.90;;;;;;5095490;28;20432;-71
2021/08/19 03:36:56;;;;;;;284.73;53.60;;;16.80;99.90;;;;;;5095564;28;20800;-71
2021/08/19 03:39:26;;;;;;;194.80;57.87;;;16.80;99.90;;;;;;5095146;28;20826;-71
2021/08/19 03:41:54;;;;;;;253.20;59.10;;;16.70;99.90;;;;;;5095385;28;20471;-71
2021/08/19 03:44:22;;;;;;;260.23;60.87;;;16.70;99.90;;;;;;5095029;28;20572;-71
2021/08/19 03:46:52;;;;;;;289.20;63.17;;;16.70;99.90;;;;;;5094954;28;20444;-71
2021/08/19 03:49:20;;;;;;;287.27;62.43;;;16.70;99.90;;;;;;5094969;28;20429;-71
2021/08/19 03:51:48;;;;;;;264.57;58.43;;;16.70;99.90;;;;;;5091263;28;20456;-71
2021/08/19 03:54:17;;;;;;;274.80;62.97;;;16.70;99.90;;;;;;5093439;28;20463;-71
2021/08/19 03:56:45;;;;;;;13.70;12.30;;;16.70;99.90;;;;;;5092541;28;20448;-71
2021/08/19 03:59:14;;;;;;;273.73;51.67;;;16.70;99.90;;;;;;5094728;28;20187;-71
2021/08/19 04:01:42;;;;;;;73.10;24.30;;;16.70;99.90;;;;;;5094215;28;20463;-71
2021/08/19 04:04:12;;;;;;;257.90;56.50;;;16.70;99.90;;;;;;5094485;28;20467;-71
2021/08/19 04:06:40;;;;;;;283.77;56.37;;;16.70;99.90;;;;;;5094867;28;20411;-71
2021/08/19 04:09:08;;;;;;;279.63;55.90;;;16.70;99.90;;;;;;5092491;28;20461;-71
2021/08/19 04:11:37;;;;;;;289.13;55.27;;;16.70;99.90;;;;;;5093231;28;20455;-71
2021/08/19 04:14:05;;;;;;;286.57;56.47;;;16.70;99.90;;;;;;5094365;28;20453;-71
2021/08/19 04:16:33;;;;;;;282.90;58.03;;;16.70;99.90;;;;;;5094345;28;20476;-71
2021/08/19 04:19:01;;;;;;;236.73;58.50;;;16.70;99.90;;;;;;5094402;28;20449;-71
2021/08/19 04:21:30;;;;;;;284.10;58.03;;;16.70;99.90;;;;;;5094371;28;20494;-71
2021/08/19 04:23:58;;;;;;;236.37;54.57;;;16.60;99.90;;;;;;5094060;28;20458;-71
2021/08/19 04:26:28;;;;;;;199.77;48.25;;;16.60;99.90;;;;;;5093622;28;20446;-71
2021/08/19 04:28:56;;;;;;;223.67;52.63;;;16.60;99.90;;;;;;5090640;28;20194;-71
2021/08/19 04:31:24;;;;;;;285.33;63.60;;;16.60;99.90;;;;;;5094292;28;20821;-71
2021/08/19 04:33:52;;;;;;;12.02;10.82;;;16.60;99.90;;;;;;5091613;28;20992;-71
2021/08/19 04:36:20;;;;;;;279.37;49.10;;;16.70;99.90;;;;;;5094053;28;20192;-71
2021/08/19 04:38:49;;;;;;;281.57;59.53;;;16.70;99.90;;;;;;5094142;28;20437;-71
2021/08/19 04:41:17;;;;;;;270.77;54.30;;;16.70;99.90;;;;;;5093993;28;20436;-71
2021/08/19 04:43:45;;;;;;;247.40;56.87;;;16.70;99.90;;;;;;5093859;28;20488;-71
2021/08/19 04:46:14;;;;;;;243.97;50.53;;;16.60;99.90;;;;;;5094163;28;20439;-71
2021/08/19 04:48:42;;;;;;;283.63;64.43;;;16.60;99.90;;;;;;5091853;28;20419;-71
2021/08/19 04:51:10;;;;;;;285.73;61.83;;;16.60;99.90;;;;;;5094052;28;20937;-71
2021/08/19 04:53:38;;;;;;;286.10;62.07;;;16.60;99.90;;;;;;5093664;28;20468;-71
2021/08/19 04:56:07;;;;;;;260.47;55.27;;;16.60;99.90;;;;;;5094008;28;20448;-71
2021/08/19 04:58:37;;;;;;;11.40;10.20;;;16.60;99.90;;;;;;5091535;28;20866;-71
2021/08/19 05:01:05;;;;;;;227.67;52.13;;;16.70;99.90;;;;;;5092360;28;20213;-71
2021/08/19 05:03:33;;;;;;;87.53;24.45;;;16.70;99.90;;;;;;5093020;28;20493;-71
2021/08/19 05:06:01;;;;;;;254.27;55.10;;;16.70;99.90;;;;;;5094227;28;20187;-71
2021/08/19 05:08:29;;;;;;;227.47;54.33;;;16.70;99.90;;;;;;5093516;28;20458;-71
2021/08/19 05:10:57;;;;;;;276.23;55.53;;;16.70;99.90;;;;;;5094096;28;20460;-71
2021/08/19 05:13:27;;;;;;;281.40;55.77;;;16.70;99.90;;;;;;5089780;28;20460;-71
2021/08/19 05:15:55;;;;;;;268.97;56.07;;;16.70;99.90;;;;;;5092156;28;20462;-71
2021/08/19 05:18:24;;;;;;;271.53;55.37;;;16.70;99.90;;;;;;5093445;28;20441;-71
2021/08/19 05:20:52;;;;;;;284.73;54.73;;;16.70;99.90;;;;;;5094448;28;20835;-71
2021/08/19 05:23:20;;;;;;;289.87;64.23;;;16.70;99.90;;;;;;5093247;28;20472;-71
2021/08/19 05:25:48;;;;;;;284.70;55.63;;;16.70;99.90;;;;;;5092029;28;20535;-71
2021/08/19 05:28:16;;;;;;;286.63;59.30;;;16.70;99.90;;;;;;5091968;28;20444;-71
2021/08/19 05:30:46;;;;;;;285.80;58.10;;;16.70;99.90;;;;;;5092860;28;20450;-71
2021/08/19 05:33:14;;;;;;;286.37;58.77;;;16.80;99.90;;;;;;5091789;28;20472;-71
2021/08/19 05:35:42;;;;;;;284.03;57.10;;;16.80;99.90;;;;;;5092016;28;20445;-71
2021/08/19 05:38:10;;;;;;;285.33;59.63;;;16.80;99.90;;;;;;5092904;28;20616;-71
2021/08/19 05:40:38;;;;;;;269.60;59.63;;;16.80;99.90;;;;;;5094833;28;20441;-71
2021/08/19 05:43:06;;;;;;;289.27;65.20;;;16.80;99.90;;;;;;5095663;28;20913;-71
2021/08/19 05:45:35;;;;;;;289.80;65.87;;;16.80;99.90;;;;;;5096079;28;20973;-71
2021/08/19 05:48:05;;;;;;;284.17;55.60;;;16.80;99.90;;;;;;5097347;28;21002;-71
2021/08/19 05:50:33;;;;;;;285.27;61.37;;;16.80;99.90;;;;;;5096061;28;20440;-71
2021/08/19 05:53:01;;;;;;;288.63;58.50;;;16.90;99.90;;;;;;5097131;28;20891;-71
2021/08/19 05:55:30;;;;;;;295.17;61.47;;;16.90;99.90;;;;;;5095876;28;20961;-71
2021/08/19 05:57:58;;;;;;;287.13;60.47;;;16.90;99.90;;;;;;5097257;28;20413;-71
2021/08/19 06:00:26;;;;;;;288.30;62.30;;;16.90;99.90;;;;;;5097548;28;20503;-71
2021/08/19 06:02:54;;;;;;;285.30;64.30;;;16.90;99.90;;;;;;5097472;28;20460;-71
2021/08/19 06:05:25;;;;;;;284.03;59.03;;;16.90;99.90;;;;;;5097016;28;21003;-71
2021/08/19 06:07:53;;;;;;;286.37;67.40;;;16.90;99.90;;;;;;5097226;28;20447;-71
2021/08/19 06:10:21;;;;;;;288.53;59.67;;;17.00;99.90;;;;;;5097217;28;20810;-70
2021/08/19 06:12:49;;;;;;;289.23;65.67;;;17.00;99.90;;;;;;5096249;28;20461;-71
2021/08/19 06:15:18;;;;;;;287.10;63.37;;;17.00;99.90;;;;;;5097470;28;20799;-71
2021/08/19 06:17:46;;;;;;;285.87;59.80;;;17.00;99.90;;;;;;5095837;28;20452;-71
2021/08/19 06:20:14;;;;;;;263.47;60.97;;;17.10;99.90;;;;;;5097200;28;20464;-71
2021/08/19 06:22:44;;;;;;;289.37;60.00;;;17.10;99.90;;;;;;5113046;28;20821;-71
2021/08/19 06:25:12;;;;;;;284.77;62.57;;;17.10;99.90;;;;;;5097274;28;20827;-71
2021/08/19 06:27:41;;;;;;;286.03;63.13;;;17.10;99.90;;;;;;5095310;28;20440;-71
2021/08/19 06:30:10;;;;;;;282.43;57.60;;;17.10;99.90;;;;;;5096531;28;20447;-70
2021/08/19 06:32:38;;;;;;;12.98;11.68;;;17.20;99.90;;;;;;5096116;28;20523;-70
2021/08/19 06:35:08;;;;;;;281.73;51.60;;;17.20;99.90;;;;;;5097154;28;20770;-70
2021/08/19 06:37:36;;;;;;;13.45;12.15;;;17.30;99.90;;;;;;5094632;28;20449;-71
2021/08/19 06:40:08;;;;;;;255.97;52.17;;;17.30;99.90;;;;;;5096999;28;20653;-71
2021/08/19 06:42:36;;;;;;;281.10;54.57;;;17.30;99.90;;;;;;5096366;28;20463;-71
2021/08/19 06:45:04;;;;;;;281.60;55.33;;;17.40;99.90;;;;;;5094956;28;20471;-71
2021/08/19 06:47:32;;;;;;;286.90;57.03;;;17.40;99.90;;;;;;5096913;28;20432;-71
2021/08/19 06:50:01;;;;;;;285.63;58.20;;;17.40;99.90;;;;;;5095905;28;20961;-70
2021/08/19 06:52:29;;;;;;;283.50;54.53;;;17.40;99.90;;;;;;5094793;28;20489;-70
2021/08/19 06:54:58;;;;;;;289.53;62.43;;;17.50;99.90;;;;;;5096274;28;20407;-70
2021/08/19 06:57:28;;;;;;;285.13;56.20;;;17.40;99.90;;;;;;5096105;28;20411;-70
2021/08/19 06:59:56;;;;;;;286.70;59.20;;;17.50;99.90;;;;;;5096379;28;20489;-70
2021/08/19 07:02:27;;;;;;;136.20;33.50;;;17.50;99.90;;;;;;5094521;28;20455;-70
2021/08/19 07:04:55;;;;;;;284.50;51.17;;;17.50;99.90;;;;;;5095855;28;20206;-70
2021/08/19 07:07:26;;;;;;;267.77;54.43;;;17.50;99.90;;;;;;5095923;28;20429;-71
2021/08/19 07:09:54;;;;;;;282.77;58.13;;;17.50;99.90;;;;;;5094552;28;20944;-70
2021/08/19 07:12:22;;;;;;;289.53;58.87;;;17.60;99.90;;;;;;5096093;28;20445;-70
2021/08/19 07:14:52;;;;;;;260.40;57.07;;;17.60;99.90;;;;;;5096189;28;20450;-71
2021/08/19 07:17:20;;;;;;;286.93;62.90;;;17.60;99.90;;;;;;5095952;28;20773;-71
2021/08/19 07:19:48;;;;;;;284.97;58.17;;;17.60;99.90;;;;;;5094660;28;20457;-71
2021/08/19 07:22:16;;;;;;;285.40;53.37;;;17.70;99.90;;;;;;5095858;28;20443;-70
2021/08/19 07:24:44;;;;;;;282.80;56.67;;;17.70;99.90;;;;;;5094503;28;20863;-70
2021/08/19 07:27:12;;;;;;;289.07;63.17;;;17.70;99.90;;;;;;5095589;28;20428;-71
2021/08/19 07:29:41;;;;;;;285.30;57.80;;;17.70;99.90;;;;;;5094569;28;20507;-70
2021/08/19 07:32:11;;;;;;;287.17;59.50;;;17.70;99.90;;;;;;5095549;28;20432;-71
2021/08/19 07:34:39;;;;;;;13.65;12.43;;;17.70;99.90;;;;;;5093254;28;20436;-70
2021/08/19 07:37:07;;;;;;;249.07;45.93;;;17.80;99.90;;;;;;5095437;28;20202;-71
2021/08/19 07:39:35;;;;;;;12.97;11.67;;;17.80;99.90;;;;;;5094653;28;20502;-71
2021/08/19 07:42:04;;;;;;;224.43;51.57;;;17.90;99.90;;;;;;5095591;28;20468;-70
2021/08/19 07:44:36;;;;;;;283.20;56.47;;;17.90;99.90;;;;;;5095241;28;20958;-70
2021/08/19 07:47:05;;;;;;;265.97;51.53;;;17.90;99.90;;;;;;5095365;28;20442;-71
2021/08/19 07:49:34;;;;;;;283.70;53.97;;;18.00;99.90;;;;;;5095371;28;20970;-70
2021/08/19 07:52:03;;;;;;;272.07;52.27;;;17.90;99.90;;;;;;5093706;28;20479;-70
2021/08/19 07:54:31;;;;;;;289.47;56.83;;;17.90;99.90;;;;;;5095127;28;20436;-71
2021/08/19 07:56:59;;;;;;;291.47;55.77;;;18.00;99.90;;;;;;5095222;28;20432;-71
2021/08/19 07:59:27;;;;;;;290.20;59.70;;;18.00;99.90;;;;;;5095211;28;20433;-71
2021/08/19 08:02:11;;;;;;;288.73;61.77;;;18.00;99.90;;;;;;5094996;28;20918;-70
2021/08/19 08:04:41;;;;;;;16.45;14.95;;;18.00;99.90;;;;;;5094678;28;20498;-71
2021/08/19 08:07:10;;;;;;;270.83;53.13;;;18.10;99.90;;;;;;5094635;28;20195;-71
2021/08/19 08:09:38;;;;;;;166.82;38.10;;;18.10;99.90;;;;;;5096203;28;20480;-71
2021/08/19 08:12:06;;;;;;;224.33;53.83;;;18.10;99.90;;;;;;5095872;28;20438;-71
2021/08/19 08:14:35;;;;;;;289.43;60.63;;;18.20;99.90;;;;;;5095782;28;20429;-70
2021/08/19 08:17:03;;;;;;;288.17;61.60;;;18.20;99.90;;;;;;5095513;28;20472;-71
2021/08/19 08:19:31;;;;;;;233.83;59.80;;;18.20;99.90;;;;;;5094281;28;20532;-71
2021/08/19 08:22:01;;;;;;;285.03;64.03;;;18.20;99.90;;;;;;5095631;28;20451;-71
2021/08/19 08:24:29;;;;;;;289.17;60.27;;;18.20;99.90;;;;;;5095023;28;20461;-71
2021/08/19 08:26:57;;;;;;;288.03;57.67;;;18.20;99.90;;;;;;5095412;28;20519;-71
2021/08/19 08:29:26;;;;;;;290.80;62.53;;;18.20;99.90;;;;;;5095310;28;20802;-71
2021/08/19 08:31:54;;;;;;;292.73;61.57;;;18.20;99.90;;;;;;5095021;28;20475;-71
2021/08/19 08:34:23;;;;;;;293.13;68.63;;;18.30;99.90;;;;;;5093809;28;20460;-71
2021/08/19 08:36:53;;;;;;;300.07;70.57;;;18.30;99.90;;;;;;5095932;28;20495;-71
2021/08/19 08:39:25;;;;;;;296.37;71.87;;;18.30;99.90;;;;;;5093802;28;20818;-71
2021/08/19 08:41:53;;;;;;;291.73;62.57;;;18.30;99.90;;;;;;5095262;28;20851;-71
2021/08/19 08:44:21;;;;;;;300.50;79.37;;;18.20;99.90;;;;;;5095025;28;20473;-71
2021/08/19 08:46:50;;;;;;;300.47;76.73;;;18.20;99.90;;;;;;5093594;28;20809;-71
2021/08/19 08:49:18;;;;;;;300.73;76.60;;;18.20;99.90;;;;;;5095448;28;20433;-71
2021/08/19 08:51:51;;;;;;;305.50;75.90;;;18.20;99.90;;;;;;5094890;28;20456;-71
2021/08/19 08:54:19;;;;;;;306.93;64.70;;;18.20;99.90;;;;;;5094954;28;20465;-71
2021/08/19 08:56:49;;;;;;;293.70;73.87;;;18.20;99.90;;;;;;5094538;28;20429;-71
2021/08/19 08:59:18;;;;;;;297.87;64.13;;;18.20;99.90;;;;;;5095110;28;20846;-71
2021/08/19 09:01:47;;;;;;;299.07;67.40;;;18.20;99.90;;;;;;5093306;28;20886;-71
2021/08/19 09:04:15;;;;;;;293.80;73.40;;;18.10;99.90;;;;;;5093286;28;21060;-71
2021/08/19 09:06:46;;;;;;;29.70;26.60;;;18.10;99.90;;;;;;5093572;28;20436;-71
2021/08/19 09:09:16;;;;;;;250.07;61.40;;;18.20;99.90;;;;;;5093339;28;20236;-71
2021/08/19 09:11:45;;;;;;;27.88;25.17;;;18.20;99.90;;;;;;5094069;28;20433;-71
2021/08/19 09:14:20;;;;;;;293.47;64.30;;;18.20;99.90;;;;;;5094283;28;20211;-71
2021/08/19 09:16:48;;;;;;;295.87;65.90;;;18.20;99.90;;;;;;5094768;28;20423;-71
2021/08/19 09:19:17;;;;;;;257.87;59.87;;;18.20;99.90;;;;;;5093310;28;20445;-71
2021/08/19 09:21:47;;;;;;;287.17;65.30;;;18.20;99.90;;;;;;5094440;28;20531;-71
2021/08/19 09:24:17;;;;;;;294.67;65.03;;;18.20;99.90;;;;;;5094289;28;20459;-71
2021/08/19 09:26:46;;;;;;;297.23;72.23;;;18.20;99.90;;;;;;5093338;28;20534;-71
2021/08/19 09:29:31;;;;;;;292.43;62.67;;;18.30;99.90;;;;;;5094166;28;20455;-71
2021/08/19 09:32:11;;;;;;;291.47;64.23;;;18.40;99.90;;;;;;5093909;28;20948;-71
2021/08/19 09:34:40;;;;;;;293.93;72.77;;;18.50;99.90;;;;;;5093863;28;20508;-71
2021/08/19 09:37:11;;;;;;;24.50;22.15;;;18.50;99.90;;;;;;5092892;28;20460;-71
2021/08/19 09:39:41;;;;;;;232.33;51.73;;;18.70;99.90;;;;;;5093432;28;20179;-71
2021/08/19 09:42:10;;;;;;;23.55;21.35;;;18.70;99.90;;;;;;5091230;28;20471;-71
2021/08/19 09:44:42;;;;;;;264.23;53.40;;;18.80;99.90;;;;;;5093043;28;20194;-71
2021/08/19 09:47:29;;;;;;;274.17;55.80;;;18.90;99.90;;;;;;5093066;28;20935;-71
2021/08/19 09:50:12;;;;;;;251.50;54.77;;;18.90;99.90;;;;;;5091863;28;20441;-71
2021/08/19 09:52:40;;;;;;;287.77;56.93;;;19.00;99.90;;;;;;5093089;28;20487;-71
2021/08/19 09:55:22;;;;;;;289.93;57.80;;;19.00;99.90;;;;;;5091897;28;20441;-71
2021/08/19 09:57:50;;;;;;;290.17;56.50;;;19.00;99.90;;;;;;5093611;28;20489;-71
2021/08/19 10:00:28;;;;;;;289.53;56.27;;;19.00;99.90;;;;;;5091974;28;20440;-71
2021/08/19 10:02:57;;;;;;;288.87;54.30;;;19.00;99.90;;;;;;5091626;28;20472;-71
2021/08/19 10:05:25;;;;;;;266.10;56.23;;;19.00;99.90;;;;;;5093209;28;20468;-71
2021/08/19 10:07:53;;;;;;;256.23;53.83;;;19.00;99.90;;;;;;5092887;28;20441;-71
2021/08/19 10:10:22;;;;;;;288.07;59.07;;;19.10;99.90;;;;;;5093401;28;20489;-71
2021/08/19 10:12:50;;;;;;;19.02;17.42;;;19.10;99.90;;;;;;5091402;28;20440;-71
2021/08/19 10:15:20;;;;;;;276.23;46.30;;;19.20;99.90;;;;;;5092875;28;20191;-71
2021/08/19 10:17:53;;;;;;;260.70;49.23;;;19.20;99.90;;;;;;5093088;28;20437;-71
2021/08/19 10:20:26;;;;;;;299.00;57.17;;;19.20;99.90;;;;;;5091578;28;20471;-71
2021/08/19 10:22:57;;;;;;;291.27;52.17;;;19.20;99.90;;;;;;5093493;28;20488;-71
2021/08/19 10:25:27;;;;;;;291.80;58.13;;;19.20;99.90;;;;;;5097105;28;20511;-71
2021/08/19 10:28:19;;;;;;;288.00;54.77;;;19.20;99.90;;;;;;5098570;28;20531;-71
2021/08/19 10:30:49;;;;;;;293.67;60.40;;;19.20;99.90;;;;;;5097495;28;20421;-71
2021/08/19 10:33:45;;;;;;;297.30;53.47;;;19.20;99.90;;;;;;5097044;28;20500;-71
2021/08/19 10:36:47;;;;;;;15.25;13.95;;;19.20;99.90;;;;;;5096202;28;20425;-71
2021/08/19 10:39:33;;;;;;;288.80;55.57;;;19.20;99.90;;;;;;5096908;28;20608;-71
2021/08/19 10:42:01;;;;;;;14.00;12.80;;;19.20;99.90;;;;;;5096117;28;20424;-71
2021/08/19 10:44:32;;;;;;;232.70;46.30;;;19.20;99.90;;;;;;5096571;28;20650;-71
2021/08/19 10:47:02;;;;;;;283.40;51.50;;;19.30;99.90;;;;;;5096142;28;20456;-71
2021/08/19 10:49:40;;;;;;;288.97;48.80;;;19.20;99.90;;;;;;5096506;28;20443;-71
2021/08/19 10:52:32;;;;;;;291.37;52.40;;;19.20;99.90;;;;;;5096229;28;20977;-71
2021/08/19 10:55:15;;;;;;;292.53;53.10;;;19.20;99.90;;;;;;5081154;28;20967;-71
2021/08/19 10:57:51;;;;;;;292.70;55.13;;;19.20;99.90;;;;;;5095690;28;20441;-71
2021/08/19 11:00:38;;;;;;;285.03;49.37;;;19.20;99.90;;;;;;5094774;28;20454;-71
2021/08/19 11:03:07;;;;;;;293.10;49.13;;;19.20;99.90;;;;;;5096686;28;20499;-71
2021/08/19 11:05:55;;;;;;;49.58;16.20;;;19.20;99.90;;;;;;5095388;28;20498;-71
2021/08/19 11:08:41;;;;;;;265.40;46.23;;;19.20;99.90;;;;;;5095917;28;20219;-71
2021/08/19 11:11:10;;;;;;;108.10;23.40;;;19.20;99.90;;;;;;5095501;28;20439;-71
2021/08/19 11:13:39;;;;;;;234.70;48.73;;;19.20;99.90;;;;;;5095700;28;20491;-71
2021/08/19 11:16:10;;;;;;;281.07;48.87;;;19.20;99.90;;;;;;5095911;28;20437;-72
2021/08/19 11:18:42;;;;;;;282.80;50.60;;;19.20;99.90;;;;;;5095968;28;20417;-72
2021/08/19 11:21:12;;;;;;;284.23;52.93;;;19.20;99.90;;;;;;5096031;28;20424;-72
2021/08/19 11:23:42;;;;;;;243.60;48.37;;;19.20;99.90;;;;;;5096087;28;20456;-71
2021/08/19 11:26:12;;;;;;;286.03;55.27;;;19.20;99.90;;;;;;5095545;28;20463;-71
2021/08/19 11:28:42;;;;;;;256.13;50.00;;;19.20;99.90;;;;;;5094245;28;20425;-72
2021/08/19 11:31:13;;;;;;;286.23;49.67;;;19.10;99.90;;;;;;5096219;28;20500;-71
2021/08/19 11:33:42;;;;;;;259.07;54.60;;;19.10;99.90;;;;;;5095686;28;20459;-72
2021/08/19 11:36:16;;;;;;;16.42;14.82;;;19.10;99.90;;;;;;5093734;28;20550;-71
2021/08/19 11:38:44;;;;;;;214.53;48.30;;;19.10;99.90;;;;;;5094630;28;20319;-71
2021/08/19 11:41:21;;;;;;;15.70;14.30;;;19.20;99.90;;;;;;5094976;28;20440;-71
2021/08/19 11:43:51;;;;;;;235.63;45.67;;;19.20;99.90;;;;;;5095405;28;20579;-71
2021/08/19 11:46:24;;;;;;;247.30;44.80;;;19.20;99.90;;;;;;5096531;28;20532;-71
2021/08/19 11:48:53;;;;;;;261.43;44.63;;;19.20;99.90;;;;;;5101071;28;20450;-71
2021/08/19 11:51:28;;;;;;;231.90;45.37;;;19.20;99.90;;;;;;5100875;28;20440;-71
2021/08/19 11:53:59;;;;;;;235.53;46.67;;;19.20;99.90;;;;;;5099253;28;20454;-71
2021/08/19 11:56:29;;;;;;;280.47;46.97;;;19.20;99.90;;;;;;5099268;28;20451;-71
2021/08/19 11:59:01;;;;;;;224.70;46.37;;;19.20;99.90;;;;;;5099620;28;20417;-71
2021/08/19 12:01:30;;;;;;;237.87;46.67;;;19.20;99.90;;;;;;5102768;28;20540;-70
2021/08/19 12:03:59;;;;;;;116.13;26.25;;;19.20;99.90;;;;;;5099318;28;20447;-71
2021/08/19 12:06:31;;;;;;;246.93;41.17;;;19.30;99.90;;;;;;5096489;28;20306;-71
2021/08/19 12:09:03;;;;;;;244.37;45.90;;;19.20;99.90;;;;;;5096492;28;20425;-71
2021/08/19 12:11:33;;;;;;;276.17;45.80;;;19.30;99.90;;;;;;5096383;28;20421;-71
2021/08/19 12:14:06;;;;;;;276.60;46.47;;;19.30;99.90;;;;;;5094690;28;20471;-71
2021/08/19 12:16:36;;;;;;;291.37;46.87;;;19.30;99.90;;;;;;5093770;28;20506;-71
2021/08/19 12:19:15;;;;;;;219.67;44.57;;;19.30;99.90;;;;;;5095010;28;20440;-71
2021/08/19 12:21:56;;;;;;;275.90;45.27;;;19.30;99.90;;;;;;5093793;28;20482;-71
2021/08/19 12:24:26;;;;;;;256.13;40.67;;;19.20;99.90;;;;;;5094670;28;20488;-71
2021/08/19 12:27:06;;;;;;;245.77;43.70;;;19.20;99.90;;;;;;5093484;28;20479;-71
2021/08/19 12:29:36;;;;;;;211.47;46.00;;;19.20;99.90;;;;;;5094583;28;20508;-71
2021/08/19 12:32:05;;;;;;;276.00;50.53;;;19.20;99.90;;;;;;5092875;28;20531;-71